Time;durP1;ratioP1;P1;durP2;ratioP2;P2;SDS_P1;SDS_P2;PMS_P1;PMS_P2;Temp;Humidity;BMP_temperature;BMP_pressure;BME280_temperature;BME280_humidity;BME280_pressure;Samples;Min_cycle;Max_cycle;Signal;HPM_P1;HPM_P2
2023/05/30 00:05:50;;;;;;;;;;;15.40;99.90;;;;;;20929972;28;19920;-77
2023/05/30 00:15:51;;;;;;;;;;;14.80;99.90;;;;;;20875313;28;19920;-77
2023/05/30 00:25:53;;;;;;;;;;;13.90;99.90;;;;;;20928498;28;19917;-77
2023/05/30 00:35:53;;;;;;;;;;;13.80;99.90;;;;;;20947965;28;19916;-78
2023/05/30 00:45:54;;;;;;;;;;;13.50;99.90;;;;;;20900543;28;20291;-77
2023/05/30 00:55:55;;;;;;;;;;;13.20;99.90;;;;;;20932732;28;19916;-77
2023/05/30 01:05:56;;;;;;;;;;;13.10;99.90;;;;;;20958677;28;20456;-77
2023/05/30 01:16:05;;;;;;;;;;;13.10;99.90;;;;;;20891908;28;19921;-78
2023/05/30 01:26:15;;;;;;;;;;;13.00;99.90;;;;;;20922729;28;19913;-77
2023/05/30 01:36:16;;;;;;;;;;;12.50;99.90;;;;;;20889989;28;20406;-77
2023/05/30 01:46:17;;;;;;;;;;;12.50;99.90;;;;;;20906827;28;20414;-78
2023/05/30 01:56:18;;;;;;;;;;;12.30;99.90;;;;;;20901894;28;20025;-77
2023/05/30 02:06:18;;;;;;;;;;;13.50;99.90;;;;;;20948299;28;20010;-78
2023/05/30 02:16:24;;;;;;;;;;;13.60;99.90;;;;;;20952621;28;19917;-78
2023/05/30 02:26:27;;;;;;;;;;;13.20;99.90;;;;;;20920349;28;20390;-77
2023/05/30 02:36:28;;;;;;;;;;;12.40;99.90;;;;;;20901350;28;19940;-77
2023/05/30 02:46:28;;;;;;;;;;;11.80;99.90;;;;;;20900635;28;19928;-77
2023/05/30 02:56:30;;;;;;;;;;;11.80;99.90;;;;;;20899913;28;19924;-78
2023/05/30 03:06:37;;;;;;;;;;;12.00;99.90;;;;;;20899188;28;20008;-77
2023/05/30 03:16:58;;;;;;;;;;;11.40;99.90;;;;;;20915126;28;20344;-77
2023/05/30 03:26:59;;;;;;;;;;;11.20;99.90;;;;;;20897882;28;20020;-76
2023/05/30 03:37:00;;;;;;;;;;;11.00;99.90;;;;;;20897846;28;19944;-76
2023/05/30 03:47:01;;;;;;;;;;;10.70;99.90;;;;;;20893486;28;20280;-76
2023/05/30 03:57:02;;;;;;;;;;;10.60;99.90;;;;;;20919336;28;19967;-75
2023/05/30 04:07:03;;;;;;;;;;;10.70;99.90;;;;;;20892019;28;19913;-76
2023/05/30 04:17:04;;;;;;;;;;;10.60;99.90;;;;;;20910793;28;19967;-78
2023/05/30 04:27:05;;;;;;;;;;;10.90;99.90;;;;;;20898452;28;19913;-78
2023/05/30 04:37:07;;;;;;;;;;;11.00;99.90;;;;;;20891155;28;19924;-77
2023/05/30 04:47:10;;;;;;;;;;;11.30;99.90;;;;;;20888371;28;19913;-76
2023/05/30 04:57:12;;;;;;;;;;;11.90;99.90;;;;;;20888042;28;19923;-76
2023/05/30 05:07:13;;;;;;;;;;;12.10;99.90;;;;;;20887480;28;19913;-76
2023/05/30 05:17:13;;;;;;;;;;;12.60;99.90;;;;;;20887189;28;20337;-76
2023/05/30 05:27:14;;;;;;;;;;;13.00;99.90;;;;;;20904582;28;20011;-77
2023/05/30 05:37:15;;;;;;;;;;;13.30;99.90;;;;;;20908708;28;20299;-76
2023/05/30 05:47:15;;;;;;;;;;;13.60;99.90;;;;;;20920356;28;19913;-76
2023/05/30 05:57:16;;;;;;;;;;;13.90;99.90;;;;;;20919139;28;19917;-76
2023/05/30 06:07:17;;;;;;;;;;;14.40;99.90;;;;;;20918681;28;20323;-76
2023/05/30 06:17:17;;;;;;;;;;;14.90;99.90;;;;;;20918525;28;20326;-76
2023/05/30 06:27:18;;;;;;;;;;;15.60;99.90;;;;;;20906220;28;20074;-76
2023/05/30 06:37:19;;;;;;;;;;;16.00;99.90;;;;;;20916338;28;19917;-76
2023/05/30 06:47:19;;;;;;;;;;;16.50;99.90;;;;;;20914904;28;19917;-76
2023/05/30 06:57:20;;;;;;;;;;;16.80;99.90;;;;;;20898246;28;19963;-76
2023/05/30 07:07:21;;;;;;;;;;;17.50;99.90;;;;;;20912496;28;19917;-76
2023/05/30 07:17:21;;;;;;;;;;;17.70;99.90;;;;;;20882236;28;19963;-76
2023/05/30 07:27:22;;;;;;;;;;;18.40;99.90;;;;;;20908583;28;20006;-78
2023/05/30 07:37:22;;;;;;;;;;;19.10;99.90;;;;;;20888030;28;20055;-77
2023/05/30 07:47:23;;;;;;;;;;;19.40;99.90;;;;;;20908954;28;20003;-77
2023/05/30 07:57:24;;;;;;;;;;;20.40;99.90;;;;;;20889325;28;19943;-77
2023/05/30 08:07:24;;;;;;;;;;;20.30;99.90;;;;;;20880320;28;20295;-77
2023/05/30 08:17:27;;;;;;;;;;;21.30;99.90;;;;;;20891459;28;20058;-77
2023/05/30 08:27:28;;;;;;;;;;;21.70;99.90;;;;;;20903662;28;19917;-77
2023/05/30 08:37:28;;;;;;;;;;;22.00;99.90;;;;;;20906771;28;19955;-77
2023/05/30 08:47:29;;;;;;;;;;;22.30;99.90;;;;;;20901194;28;19936;-77
2023/05/30 08:57:39;;;;;;;;;;;22.80;99.90;;;;;;20901534;28;20371;-77
2023/05/30 09:07:41;;;;;;;;;;;23.30;98.20;;;;;;20905122;28;19913;-77
2023/05/30 09:17:41;;;;;;;;;;;23.20;98.50;;;;;;20889044;28;19927;-77
2023/05/30 09:27:49;;;;;;;;;;;23.90;98.50;;;;;;20883773;28;20221;-77
2023/05/30 09:37:50;;;;;;;;;;;24.70;97.90;;;;;;20898100;28;20399;-77
2023/05/30 09:47:51;;;;;;;;;;;24.90;97.20;;;;;;20894626;28;19913;-77
2023/05/30 09:57:52;;;;;;;;;;;25.60;95.90;;;;;;20897438;28;19968;-77
2023/05/30 10:07:54;;;;;;;;;;;25.80;94.10;;;;;;20902838;28;19917;-77
2023/05/30 10:18:00;;;;;;;;;;;26.30;94.60;;;;;;20902319;28;19917;-77
2023/05/30 10:28:03;;;;;;;;;;;26.10;94.70;;;;;;20912116;28;19919;-78
2023/05/30 10:38:05;;;;;;;;;;;26.80;93.40;;;;;;20916123;28;19924;-78
2023/05/30 10:48:25;;;;;;;;;;;27.10;94.30;;;;;;20915942;28;19912;-77
2023/05/30 10:58:38;;;;;;;;;;;27.50;90.90;;;;;;20915251;28;20564;-77
2023/05/30 11:08:40;;;;;;;;;;;27.70;91.30;;;;;;20896295;28;19913;-77
2023/05/30 11:18:41;;;;;;;;;;;27.90;90.80;;;;;;20913250;28;19924;-77
2023/05/30 11:28:42;;;;;;;;;;;27.10;92.80;;;;;;20912487;28;19913;-76
2023/05/30 11:38:43;;;;;;;;;;;28.00;89.70;;;;;;20902115;28;19952;-77
2023/05/30 11:48:44;;;;;;;;;;;27.90;89.50;;;;;;20910736;28;19920;-77
2023/05/30 11:58:49;;;;;;;;;;;27.10;92.50;;;;;;20909994;28;20244;-76
2023/05/30 12:08:50;;;;;;;;;;;28.30;90.00;;;;;;20891325;28;20320;-76
2023/05/30 12:18:50;;;;;;;;;;;28.50;87.70;;;;;;20908470;28;19916;-77
2023/05/30 12:28:51;;;;;;;;;;;28.20;89.30;;;;;;20907677;28;19916;-76
2023/05/30 12:38:55;;;;;;;;;;;28.10;90.70;;;;;;20904143;28;19929;-77
2023/05/30 12:48:56;;;;;;;;;;;27.90;91.00;;;;;;20901119;28;19913;-77
2023/05/30 12:58:57;;;;;;;;;;;29.40;88.90;;;;;;20887982;28;19923;-77
2023/05/30 13:08:57;;;;;;;;;;;28.70;85.70;;;;;;20905300;28;19913;-77
2023/05/30 13:19:00;;;;;;;;;;;28.70;84.10;;;;;;20904218;28;20078;-76
2023/05/30 13:29:04;;;;;;;;;;;29.00;82.00;;;;;;20886111;28;19955;-77
2023/05/30 13:39:05;;;;;;;;;;;29.00;79.10;;;;;;20894677;28;19924;-77
2023/05/30 13:49:07;;;;;;;;;;;28.40;81.60;;;;;;20897679;28;19974;-77
2023/05/30 13:59:08;;;;;;;;;;;28.90;78.60;;;;;;20908857;28;19974;-77
2023/05/30 14:09:08;;;;;;;;;;;28.30;85.20;;;;;;20900729;28;20477;-77
2023/05/30 14:19:12;;;;;;;;;;;28.30;77.70;;;;;;20917653;28;19976;-76
2023/05/30 14:29:13;;;;;;;;;;;28.30;78.90;;;;;;20917347;28;19913;-76
2023/05/30 14:39:14;;;;;;;;;;;28.20;80.10;;;;;;20916272;28;19972;-77
2023/05/30 14:49:15;;;;;;;;;;;28.00;78.40;;;;;;20915564;28;20015;-76
2023/05/30 14:59:16;;;;;;;;;;;26.20;83.90;;;;;;20921041;28;20252;-77
2023/05/30 15:09:18;;;;;;;;;;;27.70;82.40;;;;;;20909958;28;19925;-78
2023/05/30 15:19:19;;;;;;;;;;;27.20;87.20;;;;;;20923200;28;20437;-78
2023/05/30 15:29:20;;;;;;;;;;;26.20;89.40;;;;;;20916619;28;19920;-78
2023/05/30 15:39:21;;;;;;;;;;;25.60;86.40;;;;;;20913389;28;19951;-76
2023/05/30 15:49:22;;;;;;;;;;;26.70;86.10;;;;;;20902852;28;19913;-77
2023/05/30 15:59:22;;;;;;;;;;;25.30;85.60;;;;;;20914196;28;19924;-78
2023/05/30 16:09:23;;;;;;;;;;;26.00;84.90;;;;;;20905748;28;19920;-76
2023/05/30 16:19:25;;;;;;;;;;;26.00;83.30;;;;;;20908251;28;19920;-77
2023/05/30 16:29:26;;;;;;;;;;;24.90;85.10;;;;;;20901601;28;20007;-77
2023/05/30 16:39:26;;;;;;;;;;;24.90;87.40;;;;;;20890810;28;19993;-77
2023/05/30 16:49:27;;;;;;;;;;;24.80;87.70;;;;;;20904365;28;20091;-76
2023/05/30 16:59:28;;;;;;;;;;;24.60;86.10;;;;;;20892803;28;19959;-77
2023/05/30 17:09:28;;;;;;;;;;;24.30;85.10;;;;;;20884017;28;19917;-78
2023/05/30 17:19:29;;;;;;;;;;;24.10;85.60;;;;;;20886516;28;20033;-77
2023/05/30 17:29:30;;;;;;;;;;;23.10;89.60;;;;;;20905107;28;19920;-77
2023/05/30 17:39:31;;;;;;;;;;;23.30;90.80;;;;;;20920023;28;19996;-77
2023/05/30 17:49:32;;;;;;;;;;;23.30;91.30;;;;;;20921622;28;19951;-77
2023/05/30 17:59:33;;;;;;;;;;;23.90;90.90;;;;;;20898094;28;20406;-77
2023/05/30 18:09:33;;;;;;;;;;;24.50;88.90;;;;;;20902312;28;19913;-78
2023/05/30 18:19:34;;;;;;;;;;;23.50;89.50;;;;;;20918485;28;20298;-77
2023/05/30 18:29:35;;;;;;;;;;;23.40;90.30;;;;;;20905229;28;19917;-77
2023/05/30 18:39:36;;;;;;;;;;;22.40;91.80;;;;;;20914292;28;19962;-77
2023/05/30 18:49:37;;;;;;;;;;;21.90;92.20;;;;;;20915631;28;20216;-77
2023/05/30 18:59:37;;;;;;;;;;;21.50;93.10;;;;;;20917281;28;19929;-78
2023/05/30 19:09:39;;;;;;;;;;;21.20;93.50;;;;;;20916030;28;19916;-77
2023/05/30 19:19:39;;;;;;;;;;;20.90;93.70;;;;;;20897810;28;19924;-77
2023/05/30 19:29:40;;;;;;;;;;;20.70;94.40;;;;;;20915565;28;19956;-77
2023/05/30 19:39:40;;;;;;;;;;;20.60;95.20;;;;;;20913037;28;19968;-77
2023/05/30 19:49:41;;;;;;;;;;;20.30;96.10;;;;;;20896510;28;19928;-77
2023/05/30 19:59:42;;;;;;;;;;;20.00;96.90;;;;;;20910883;28;19970;-77
2023/05/30 20:09:42;;;;;;;;;;;19.70;97.90;;;;;;20913474;28;19963;-77
2023/05/30 20:19:45;;;;;;;;;;;19.70;98.60;;;;;;20895165;28;20291;-77
2023/05/30 20:29:47;;;;;;;;;;;19.40;99.30;;;;;;20899472;28;19920;-79
2023/05/30 20:39:47;;;;;;;;;;;19.40;99.90;;;;;;20939272;28;19917;-79
2023/05/30 20:49:48;;;;;;;;;;;19.40;99.90;;;;;;20919254;28;20294;-77
2023/05/30 20:59:49;;;;;;;;;;;19.20;99.90;;;;;;20915857;28;20195;-77
2023/05/30 21:09:49;;;;;;;;;;;18.70;99.90;;;;;;20903677;28;19962;-77
2023/05/30 21:19:50;;;;;;;;;;;18.60;99.90;;;;;;20905346;28;19924;-76
2023/05/30 21:29:51;;;;;;;;;;;18.60;99.90;;;;;;20906877;28;20288;-75
2023/05/30 21:39:51;;;;;;;;;;;18.20;99.90;;;;;;20906590;28;19924;-76
2023/05/30 21:49:52;;;;;;;;;;;18.00;99.90;;;;;;20906269;28;19917;-76
2023/05/30 21:59:53;;;;;;;;;;;17.90;99.90;;;;;;20896255;28;19963;-76
2023/05/30 22:09:53;;;;;;;;;;;17.80;99.90;;;;;;20905708;28;19948;-76
2023/05/30 22:19:54;;;;;;;;;;;17.50;99.90;;;;;;20896476;28;19955;-76
2023/05/30 22:29:55;;;;;;;;;;;17.30;99.90;;;;;;20907599;28;19971;-76
2023/05/30 22:39:55;;;;;;;;;;;17.20;99.90;;;;;;20919792;28;19956;-76
2023/05/30 22:49:56;;;;;;;;;;;17.20;99.90;;;;;;20917682;28;19919;-75
2023/05/30 22:59:56;;;;;;;;;;;17.00;99.90;;;;;;20918105;28;20272;-75
2023/05/30 23:09:57;;;;;;;;;;;16.90;99.90;;;;;;20892792;28;19913;-75
2023/05/30 23:19:58;;;;;;;;;;;16.80;99.90;;;;;;20907218;28;19923;-75
2023/05/30 23:29:58;;;;;;;;;;;16.70;99.90;;;;;;20907977;28;20362;-76
2023/05/30 23:39:59;;;;;;;;;;;16.60;99.90;;;;;;20914533;28;19917;-76
2023/05/30 23:50:00;;;;;;;;;;;16.30;99.90;;;;;;20913804;28;19916;-76
